Sao Luiz Aeroporto, Brazil

12:56 PM BRT on January 26, 2015 (GMT -0300)
Marechal Cunha Machado | Change Station
CLOSE
Current Station
Airport
Location: Sao Luiz Aeroporto,
Elevation: 174 ft
Nearby Weather Stations

Elev 174 ft 2.59 °S, 44.23 °W | Updated -197 second ago

Mostly Cloudy
Mostly Cloudy
91 °F
Feels Like 92 °F
N
18
Wind Variable Wind from East

Today
High -- | Low -- °F
--% Chance of Precip.
Yesterday
High -- | Low -- °F
Precip. -- in
6:02 AM 6:16 PM
Waxing Crescent, 44% visible
Pressure 29.89 in
Visibility 6.2 miles
Clouds Mostly Cloudy 2000 ft
Heat Index 92 °F
Dew Point 63 °F
Humidity 38%
Rainfall 0.00 in
Snow Depth Not available.
UV 8 out of 12
Pollen Not available.
Air Quality Not available.
Flu Activity Not available.
METAR SBSL 261600Z 08016KT 9999 BKN020 33/17 Q1012

More Conditions Fewer Conditions

Pressure 29.89 in
Visibility 6.2 miles
Clouds Mostly Cloudy 2000 ft
Heat Index 92 °F
Dew Point 63 °F
Humidity 38%
Rainfall 0.00 in
Snow Depth Not available.
UV 8 out of 12
Pollen Not available.
Air Quality Not available.
Flu Activity Not available.
METAR SBSL 261600Z 08016KT 9999 BKN020 33/17 Q1012

More Conditions Fewer Conditions

10-Day Weather Forecast

Almanac

Astronomy

Jan. 26, 2015 Rise Set
Actual Time
Civil Twilight
Nautical Twilight
Astronomical Twilight
Moon
Length of Visible Light
Length of Day
Tomorrow will be .
, % of the Moon is Illuminated

Today's Extremes

Country Highs Country Lows

Community

WunderPhotos

Upload Photos

1,790,249 photos uploaded!

WunderBlogs® & News

Nearby

Air Quality

  Air Quality AQ Index Pollutant
Not available.

Snow Depth

Station Depth Elevation

Earthquake Activity

City Distance Mag. Time & Date
Minimum magnitude displayed is 2.5.

Coastal Water Temperatures

Place Temperature

Nearby Weather Stations